Nearby METAR Reports

 

KNFE - Fentress Naval, Virginia, USA
Distance from station: ENE 5mi, 7km
Updated: Mon, 03-Oct-2022 7:56am EDT
Light rain, Mist, Overcast
Light rain, Mist, Overcast
 Wind from N
Wind: N 15 mph , 24 km/h, Gust: 26 mph , 43 km/h
Temperature: 55°F , 13°C
Dew Point: 54°F , 12°C
Humidity: 94%
Barometer: 30.00 inHg , 1015.9 hPa
Summary: Light rain, Mist
Clouds: Overcast
Visibility: 3 miles , 5 km
Cloud details: Overcast 1000 ft
2022/10/03 11:56 KNFE 031156Z AUTO 35013G23KT 3SM -RA BR OVC010 13/12 A3000 RMK AO2 CIG 006V014 SLP161 P0004 60012 70022 T01330117 10150 20133 53010
KCPK - Chesapeake, Virginia, USA
Distance from station: W 6mi, 9km
Updated: Mon, 03-Oct-2022 7:55am EDT

 Wind from NNW
Wind: NNW 12 mph , 19 km/h, Gust: 18 mph , 30 km/h
Temperature: 52°F , 11°C
Dew Point: 50°F , 10°C
Humidity: 94%
Barometer: 30.02 inHg , 1016.6 hPa
2022/10/03 11:55 KCPK 031155Z AUTO 33010G16KT 11/10 A3002 RMK AO2 P0001 6//// 7//// T01060096 10132 20103
 
KNTU - Oceana Nas/Souce, Virginia, USA
Distance from station: NE 14mi, 23km
Updated: Mon, 03-Oct-2022 7:56am EDT
Overcast
Overcast
 Wind from N
Wind: N 22 mph , 35 km/h, Gust: 31 mph , 50 km/h
Temperature: 54°F , 12°C
Dew Point: 52°F , 11°C
Humidity: 94%
Barometer: 29.99 inHg , 1015.6 hPa
Clouds: Overcast
Visibility: 10 miles , 16 km
Cloud details: Overcast 1300 ft
2022/10/03 11:56 KNTU 031156Z AUTO 36019G27KT 10SM OVC013 12/11 A2999 RMK AO2 PK WND 01028/1145 RAE35 SLP158 P0001 60006 70008 T01220106 10144 20122 51014 $
KORF - Norfolk, Virginia, USA
Distance from station: N 15mi, 24km
Updated: Mon, 03-Oct-2022 7:51am EDT
Overcast
Overcast
 Wind from N
Wind: N 24 mph , 39 km/h, Gust: 33 mph , 54 km/h
Temperature: 55°F , 13°C
Dew Point: 54°F , 12°C
Humidity: 94%
Barometer: 30.01 inHg , 1016.3 hPa
Clouds: Overcast
Visibility: 10 miles , 16 km
Cloud details: Overcast 1300 ft
2022/10/03 11:51 KORF 031151Z AUTO 36021G29KT 10SM OVC013 13/12 A3001 RMK AO2 PK WND 35030/1137 RAE31 SLP162 P0001 60007 70019 T01280117 10150 20122 51014
 
KPVG - Norfolk/Hampton, Virginia, USA
Distance from station: WNW 15mi, 24km
Updated: Mon, 03-Oct-2022 7:56am EDT
Light rain, Mist, Overcast
Light rain, Mist, Overcast
 Wind from N
Wind: N 9 mph , 15 km/h
Temperature: 52°F , 11°C
Dew Point: 52°F , 11°C
Humidity: 100%
Barometer: 30.05 inHg , 1017.6 hPa
Summary: Light rain, Mist
Clouds: Overcast
Visibility: 2 miles , 3 km
Cloud details: Overcast 700 ft
2022/10/03 11:56 KPVG 031156Z AUTO 35008KT 310V040 2SM -RA BR OVC007 11/11 A3005 RMK AO2 CIG 004V010 SLP176 6//// 7//// T01060106 10122 20100 51016 PNO $
KNGU - Norfolk Nas/Cham, Virginia, USA
Distance from station: N 16mi, 26km
Updated: Mon, 03-Oct-2022 6:59am EDT
Light rain, Mist, Overcast
Light rain, Mist, Overcast
 Wind from N
Wind: N 17 mph , 28 km/h, Gust: 33 mph , 54 km/h
Temperature: 54°F , 12°C
Dew Point: 52°F , 11°C
Humidity: 94%
Barometer: 30.04 inHg , 1017.3 hPa
Summary: Light rain, Mist
Clouds: Overcast
Visibility: 3 miles , 5 km
Cloud details: Overcast 1200 ft
2022/10/03 10:59 KNGU 031059Z AUTO 35015G29KT 3SM -RA BR OVC012 12/11 A3004 RMK AO2 PK WND 34029/1031 SLP171 P0002 T01220106
 
KSFQ - Suffolk, Virginia, USA
Distance from station: W 21mi, 34km
Updated: Mon, 03-Oct-2022 7:55am EDT
Light drizzle, Overcast
Light drizzle, Overcast
 Wind from NNW
Wind: NNW 10 mph , 17 km/h, Gust: 20 mph , 31 km/h
Barometer: 30.05 inHg , 1017.6 hPa
Summary: Light Drizzle
Clouds: Overcast
Visibility: 4 miles , 6 km
Cloud details: Overcast 900 ft
2022/10/03 11:55 KSFQ 031155Z AUTO 34009G17KT 4SM -DZ OVC009 A3005 RMK AO2
KONX - Currituck, North Carolina, USA
Distance from station: SSE 22mi, 36km
Updated: Mon, 03-Oct-2022 7:55am EDT
Mist, Overcast
Mist, Overcast
 Wind from NNW
Wind: NNW 16 mph , 26 km/h, Gust: 21 mph , 33 km/h
Temperature: 54°F , 12°C
Dew Point: 54°F , 12°C
Humidity: 100%
Barometer: 29.98 inHg , 1015.2 hPa
Summary: Mist
Clouds: Overcast
Visibility: 5 miles , 8 km
Cloud details: Overcast 700 ft
2022/10/03 11:55 KONX 031155Z AUTO 34014G18KT 5SM BR OVC007 12/12 A2998 RMK AO2 T01220122 10324 20094
 
KLFI - Langley Afb/Hamp, Virginia, USA
Distance from station: NNW 28mi, 45km
Updated: Mon, 03-Oct-2022 7:55am EDT
Light rain, Overcast
Light rain, Overcast
 Wind from NNE
Wind: NNE 16 mph , 26 km/h, Gust: 26 mph , 43 km/h
Temperature: 54°F , 12°C
Dew Point: 52°F , 11°C
Humidity: 94%
Barometer: 30.02 inHg , 1016.6 hPa
Summary: Light rain
Clouds: Overcast
Visibility: 10 miles , 16 km
Cloud details: Mostly cloudy 800 ft
Overcast 1400 ft
2022/10/03 11:55 KLFI 031155Z 02014G23KT 10SM -RA BKN008 OVC014 12/11 A3002 RMK AO2A PK WND 36030/27 CIG 008V010 SLP172 P0004 60022 70029 T01160114 10130 20105 52014 $
KECG - Elizabeth City, North Carolina, USA
Distance from station: S 29mi, 46km
Updated: Mon, 03-Oct-2022 7:54am EDT
Overcast
Overcast
 Wind from NNW
Wind: NNW 23 mph , 37 km/h, Gust: 28 mph , 44 km/h
Temperature: 54°F , 12°C
Dew Point: 52°F , 11°C
Humidity: 94%
Barometer: 29.99 inHg , 1015.6 hPa
Clouds: Overcast
Visibility: 10 miles , 16 km
Cloud details: Overcast 1100 ft
2022/10/03 11:54 KECG 031154Z 33020G24KT 10SM OVC011 12/11 A2999 RMK AO2 PK WND 34029/1106 CIG 008V015 SLP154 60003 70004 T01220106 10150 20122 51018
 
KPHF - Newport News, Virginia, USA
Distance from station: NNW 35mi, 56km
Updated: Mon, 03-Oct-2022 7:54am EDT
Light rain, Overcast
Light rain, Overcast
 Wind from N
Wind: N 14 mph , 22 km/h, Gust: 25 mph , 41 km/h
Temperature: 50°F , 10°C
Wind Chill: 45°F , 7°C
Dew Point: 48°F , 9°C
Humidity: 94%
Barometer: 30.06 inHg , 1017.9 hPa
Summary: Light rain
Clouds: Overcast
Visibility: 10 miles , 16 km
Cloud details: Overcast 1300 ft
2022/10/03 11:54 KPHF 031154Z AUTO 36012G22KT 10SM -RA OVC013 10/09 A3006 RMK AO2 RAB17 SLP177 P0001 60013 70017 T01000094 10117 20094 53008
KFAF - Ft Eustis/Felker, Virginia, USA
Distance from station: NW 37mi, 60km
Updated: Mon, 03-Oct-2022 7:55am EDT
Overcast
Overcast
 Wind from N
Wind: N 15 mph , 24 km/h, Gust: 22 mph , 35 km/h
Temperature: 52°F , 11°C
Dew Point: 48°F , 9°C
Humidity: 88%
Barometer: 30.04 inHg , 1017.3 hPa
Clouds: Overcast
Visibility: 10 miles , 16 km
Cloud details: Overcast 1100 ft
2022/10/03 11:55 KFAF 031155Z 35013G19KT 10SM OVC011 11/09 A3004 RMK AO2A RAB02E39 SLP176 P0003 60011 70018 T01060087 10122 20103 52016 $
 
KFKN - Franklin/J B Ros, Virginia, USA
Distance from station: W 38mi, 61km
Updated: Mon, 03-Oct-2022 7:55am EDT
Rain, Overcast
Rain, Overcast
 Wind from NNW
Wind: NNW 9 mph , 15 km/h, Gust: 17 mph , 28 km/h
Temperature: 50°F , 10°C
Wind Chill: 46°F , 8°C
Dew Point: 48°F , 9°C
Humidity: 94%
Barometer: 30.07 inHg , 1018.3 hPa
Summary: Rain
Clouds: Overcast
Visibility: 2 miles , 3 km
Cloud details: Overcast 800 ft
2022/10/03 11:55 KFKN 031155Z AUTO 34008G15KT 2SM RA OVC008 10/09 A3007 RMK AO2 P0001 60005 70019 T00950091 10115 20095
KJGG - Williamsburg, Virginia, USA
Distance from station: NW 47mi, 76km
Updated: Sun, 25-Sep-2022 8:35pm EDT
NOT Current
Partly cloudy
Partly cloudy
 Wind from WSW
Wind: WSW 7 mph , 11 km/h
Clouds: Partly cloudy
Visibility: 10 miles , 16 km
Cloud details: Partly cloudy 4700 ft
Partly cloudy 6000 ft
2022/09/26 00:35 KJGG 260035Z AUTO 24006KT 10SM SCT047 SCT060 120 21/17 RMK AO1
 
KAKQ - Norfolk/Wakefld, Virginia, USA
Distance from station: WNW 48mi, 78km
Updated: Mon, 03-Oct-2022 7:54am EDT
Light rain, Mist, Overcast
Light rain, Mist, Overcast
 Wind from NNW
Wind: NNW 7 mph , 11 km/h
Temperature: 48°F , 9°C
Wind Chill: 45°F , 7°C
Dew Point: 46°F , 8°C
Humidity: 94%
Barometer: 30.08 inHg , 1018.6 hPa
Summary: Light rain, Mist
Clouds: Overcast
Visibility: 2 1/2 miles , 4 km
Cloud details: Overcast 800 ft
2022/10/03 11:54 KAKQ 031154Z AUTO 34006KT 2 1/2SM -RA BR OVC008 09/08 A3008 RMK AO2 CIG 005V012 SLP186 P0012 60021 70029 T00940083 10117 20094 51015
KEDE - Edenton, North Carolina, USA
Distance from station: SSW 50mi, 80km
Updated: Mon, 03-Oct-2022 7:55am EDT
Overcast
Overcast
 Wind from N
Wind: N 18 mph , 30 km/h, Gust: 24 mph , 39 km/h
Temperature: 55°F , 13°C
Dew Point: 54°F , 12°C
Humidity: 94%
Barometer: 30.01 inHg , 1016.3 hPa
Clouds: Overcast
Visibility: 10 miles , 16 km
Cloud details: Mostly cloudy 1500 ft
Overcast 1900 ft
2022/10/03 11:55 KEDE 031155Z AUTO 36016G21KT 10SM BKN015 OVC019 13/12 A3001 RMK AO2 70002 T01260116 10153 20126